sensor_id;sensor_type;location;lat;lon;timestamp;P1;durP1;ratioP1;P2;durP2;ratioP2
6463;SDS011;3265;42.694;23.282;2023-03-01T00:02:11;6.23;;;4.47;;
6463;SDS011;3265;42.694;23.282;2023-03-01T00:04:38;6.03;;;4.50;;
6463;SDS011;3265;42.694;23.282;2023-03-01T00:07:06;6.60;;;4.40;;
6463;SDS011;3265;42.694;23.282;2023-03-01T00:09:33;8.23;;;5.00;;
6463;SDS011;3265;42.694;23.282;2023-03-01T00:12:02;10.63;;;7.97;;
6463;SDS011;3265;42.694;23.282;2023-03-01T00:14:29;37.20;;;25.60;;
6463;SDS011;3265;42.694;23.282;2023-03-01T00:17:07;51.00;;;35.67;;
6463;SDS011;3265;42.694;23.282;2023-03-01T00:19:46;47.33;;;32.03;;
6463;SDS011;3265;42.694;23.282;2023-03-01T00:22:28;46.50;;;32.93;;
6463;SDS011;3265;42.694;23.282;2023-03-01T00:24:55;42.03;;;29.90;;
6463;SDS011;3265;42.694;23.282;2023-03-01T00:27:28;31.53;;;23.57;;
6463;SDS011;3265;42.694;23.282;2023-03-01T00:29:55;29.00;;;21.07;;
6463;SDS011;3265;42.694;23.282;2023-03-01T00:32:40;18.13;;;14.30;;
6463;SDS011;3265;42.694;23.282;2023-03-01T00:35:21;15.90;;;11.53;;
6463;SDS011;3265;42.694;23.282;2023-03-01T00:37:50;14.17;;;10.30;;
6463;SDS011;3265;42.694;23.282;2023-03-01T00:40:23;12.83;;;10.03;;
6463;SDS011;3265;42.694;23.282;2023-03-01T00:42:51;12.50;;;9.47;;
6463;SDS011;3265;42.694;23.282;2023-03-01T00:45:18;9.30;;;7.17;;
6463;SDS011;3265;42.694;23.282;2023-03-01T00:47:46;10.43;;;6.63;;
6463;SDS011;3265;42.694;23.282;2023-03-01T00:50:14;8.30;;;5.77;;
6463;SDS011;3265;42.694;23.282;2023-03-01T00:52:42;10.63;;;5.70;;
6463;SDS011;3265;42.694;23.282;2023-03-01T00:55:10;8.37;;;5.27;;
6463;SDS011;3265;42.694;23.282;2023-03-01T00:57:37;8.57;;;5.20;;
6463;SDS011;3265;42.694;23.282;2023-03-01T01:00:05;7.10;;;4.53;;
6463;SDS011;3265;42.694;23.282;2023-03-01T01:02:34;6.40;;;4.37;;
6463;SDS011;3265;42.694;23.282;2023-03-01T01:05:02;5.17;;;3.90;;
6463;SDS011;3265;42.694;23.282;2023-03-01T01:07:31;6.03;;;3.77;;
6463;SDS011;3265;42.694;23.282;2023-03-01T01:09:59;4.73;;;3.83;;
6463;SDS011;3265;42.694;23.282;2023-03-01T01:12:27;6.40;;;3.90;;
6463;SDS011;3265;42.694;23.282;2023-03-01T01:14:54;4.53;;;3.70;;
6463;SDS011;3265;42.694;23.282;2023-03-01T01:17:21;4.57;;;3.40;;
6463;SDS011;3265;42.694;23.282;2023-03-01T01:19:48;3.90;;;3.40;;
6463;SDS011;3265;42.694;23.282;2023-03-01T01:22:15;3.57;;;3.27;;
6463;SDS011;3265;42.694;23.282;2023-03-01T01:24:42;4.53;;;3.40;;
6463;SDS011;3265;42.694;23.282;2023-03-01T01:27:09;3.67;;;3.10;;
6463;SDS011;3265;42.694;23.282;2023-03-01T01:29:37;3.30;;;3.00;;
6463;SDS011;3265;42.694;23.282;2023-03-01T01:32:04;6.70;;;3.10;;
6463;SDS011;3265;42.694;23.282;2023-03-01T01:34:31;3.27;;;2.97;;
6463;SDS011;3265;42.694;23.282;2023-03-01T01:36:58;3.10;;;2.60;;
6463;SDS011;3265;42.694;23.282;2023-03-01T01:39:27;2.80;;;2.60;;
6463;SDS011;3265;42.694;23.282;2023-03-01T01:41:54;3.00;;;2.50;;
6463;SDS011;3265;42.694;23.282;2023-03-01T01:44:22;2.93;;;2.63;;
6463;SDS011;3265;42.694;23.282;2023-03-01T01:46:52;3.10;;;2.67;;
6463;SDS011;3265;42.694;23.282;2023-03-01T01:49:26;3.40;;;3.10;;
6463;SDS011;3265;42.694;23.282;2023-03-01T01:52:00;3.67;;;3.00;;
6463;SDS011;3265;42.694;23.282;2023-03-01T01:54:35;3.83;;;2.80;;
6463;SDS011;3265;42.694;23.282;2023-03-01T01:57:07;3.17;;;2.63;;
6463;SDS011;3265;42.694;23.282;2023-03-01T01:59:38;2.60;;;2.40;;
6463;SDS011;3265;42.694;23.282;2023-03-01T02:02:10;2.90;;;2.60;;
6463;SDS011;3265;42.694;23.282;2023-03-01T02:04:39;2.83;;;2.63;;
6463;SDS011;3265;42.694;23.282;2023-03-01T02:07:07;2.60;;;2.40;;
6463;SDS011;3265;42.694;23.282;2023-03-01T02:09:40;2.57;;;2.37;;
6463;SDS011;3265;42.694;23.282;2023-03-01T02:12:10;2.87;;;2.33;;
6463;SDS011;3265;42.694;23.282;2023-03-01T02:14:37;2.50;;;2.30;;
6463;SDS011;3265;42.694;23.282;2023-03-01T02:17:04;2.50;;;2.30;;
6463;SDS011;3265;42.694;23.282;2023-03-01T02:19:35;2.40;;;2.20;;
6463;SDS011;3265;42.694;23.282;2023-03-01T02:22:12;3.63;;;2.17;;
6463;SDS011;3265;42.694;23.282;2023-03-01T02:24:48;2.40;;;2.20;;
6463;SDS011;3265;42.694;23.282;2023-03-01T02:27:26;2.50;;;2.30;;
6463;SDS011;3265;42.694;23.282;2023-03-01T02:30:01;2.73;;;2.37;;
6463;SDS011;3265;42.694;23.282;2023-03-01T02:32:28;2.70;;;2.20;;
6463;SDS011;3265;42.694;23.282;2023-03-01T02:34:54;2.57;;;2.20;;
6463;SDS011;3265;42.694;23.282;2023-03-01T02:37:22;4.10;;;2.70;;
6463;SDS011;3265;42.694;23.282;2023-03-01T02:39:53;3.83;;;2.57;;
6463;SDS011;3265;42.694;23.282;2023-03-01T02:42:26;2.80;;;2.60;;
6463;SDS011;3265;42.694;23.282;2023-03-01T02:44:57;4.03;;;3.60;;
6463;SDS011;3265;42.694;23.282;2023-03-01T02:47:25;3.43;;;2.90;;
6463;SDS011;3265;42.694;23.282;2023-03-01T02:49:52;4.00;;;2.83;;
6463;SDS011;3265;42.694;23.282;2023-03-01T02:52:34;3.10;;;2.80;;
6463;SDS011;3265;42.694;23.282;2023-03-01T02:55:12;3.17;;;2.87;;
6463;SDS011;3265;42.694;23.282;2023-03-01T02:57:43;3.77;;;3.20;;
6463;SDS011;3265;42.694;23.282;2023-03-01T03:00:12;3.50;;;3.20;;
6463;SDS011;3265;42.694;23.282;2023-03-01T03:02:45;3.13;;;2.83;;
6463;SDS011;3265;42.694;23.282;2023-03-01T03:05:14;3.60;;;2.90;;
6463;SDS011;3265;42.694;23.282;2023-03-01T03:07:44;3.67;;;3.07;;
6463;SDS011;3265;42.694;23.282;2023-03-01T03:10:13;3.50;;;3.20;;
6463;SDS011;3265;42.694;23.282;2023-03-01T03:12:42;3.70;;;3.17;;
6463;SDS011;3265;42.694;23.282;2023-03-01T03:15:09;4.83;;;3.43;;
6463;SDS011;3265;42.694;23.282;2023-03-01T03:17:38;4.10;;;3.40;;
6463;SDS011;3265;42.694;23.282;2023-03-01T03:20:09;5.37;;;3.73;;
6463;SDS011;3265;42.694;23.282;2023-03-01T03:22:44;3.50;;;3.20;;
6463;SDS011;3265;42.694;23.282;2023-03-01T03:25:11;3.57;;;3.27;;
6463;SDS011;3265;42.694;23.282;2023-03-01T03:27:38;3.90;;;3.50;;
6463;SDS011;3265;42.694;23.282;2023-03-01T03:30:06;4.27;;;3.57;;
6463;SDS011;3265;42.694;23.282;2023-03-01T03:32:37;3.93;;;3.53;;
6463;SDS011;3265;42.694;23.282;2023-03-01T03:35:04;4.00;;;3.60;;
6463;SDS011;3265;42.694;23.282;2023-03-01T03:37:36;4.10;;;3.60;;
6463;SDS011;3265;42.694;23.282;2023-03-01T03:40:21;4.63;;;3.83;;
6463;SDS011;3265;42.694;23.282;2023-03-01T03:42:47;4.57;;;3.47;;
6463;SDS011;3265;42.694;23.282;2023-03-01T03:45:14;4.90;;;3.33;;
6463;SDS011;3265;42.694;23.282;2023-03-01T03:47:41;3.57;;;3.20;;
6463;SDS011;3265;42.694;23.282;2023-03-01T03:50:09;3.90;;;3.37;;
6463;SDS011;3265;42.694;23.282;2023-03-01T03:52:39;4.30;;;3.50;;
6463;SDS011;3265;42.694;23.282;2023-03-01T03:55:06;3.93;;;3.30;;
6463;SDS011;3265;42.694;23.282;2023-03-01T03:57:35;3.73;;;3.30;;
6463;SDS011;3265;42.694;23.282;2023-03-01T04:00:04;5.43;;;3.20;;
6463;SDS011;3265;42.694;23.282;2023-03-01T04:02:49;4.80;;;3.60;;
6463;SDS011;3265;42.694;23.282;2023-03-01T04:05:21;4.30;;;3.43;;
6463;SDS011;3265;42.694;23.282;2023-03-01T04:07:50;4.93;;;3.70;;
6463;SDS011;3265;42.694;23.282;2023-03-01T04:10:26;4.50;;;3.40;;
6463;SDS011;3265;42.694;23.282;2023-03-01T04:12:53;4.47;;;3.63;;
6463;SDS011;3265;42.694;23.282;2023-03-01T04:15:21;5.57;;;3.67;;
6463;SDS011;3265;42.694;23.282;2023-03-01T04:17:49;6.47;;;3.97;;
6463;SDS011;3265;42.694;23.282;2023-03-01T04:20:18;5.00;;;3.80;;
6463;SDS011;3265;42.694;23.282;2023-03-01T04:22:52;6.60;;;3.93;;
6463;SDS011;3265;42.694;23.282;2023-03-01T04:25:23;4.90;;;3.70;;
6463;SDS011;3265;42.694;23.282;2023-03-01T04:27:51;4.20;;;3.50;;
6463;SDS011;3265;42.694;23.282;2023-03-01T04:30:18;5.00;;;3.07;;
6463;SDS011;3265;42.694;23.282;2023-03-01T04:32:45;4.40;;;3.60;;
6463;SDS011;3265;42.694;23.282;2023-03-01T04:35:12;5.97;;;3.43;;
6463;SDS011;3265;42.694;23.282;2023-03-01T04:37:39;3.87;;;3.33;;
6463;SDS011;3265;42.694;23.282;2023-03-01T04:40:09;4.53;;;3.80;;
6463;SDS011;3265;42.694;23.282;2023-03-01T04:42:41;3.73;;;3.10;;
6463;SDS011;3265;42.694;23.282;2023-03-01T04:45:08;4.43;;;3.73;;
6463;SDS011;3265;42.694;23.282;2023-03-01T04:47:38;4.00;;;3.40;;
6463;SDS011;3265;42.694;23.282;2023-03-01T04:50:06;4.20;;;3.47;;
6463;SDS011;3265;42.694;23.282;2023-03-01T04:52:34;5.70;;;3.60;;
6463;SDS011;3265;42.694;23.282;2023-03-01T04:55:01;4.50;;;3.27;;
6463;SDS011;3265;42.694;23.282;2023-03-01T04:57:30;4.40;;;3.60;;
6463;SDS011;3265;42.694;23.282;2023-03-01T04:59:57;4.43;;;3.17;;
6463;SDS011;3265;42.694;23.282;2023-03-01T05:02:24;3.63;;;3.07;;
6463;SDS011;3265;42.694;23.282;2023-03-01T05:04:51;4.53;;;3.67;;
6463;SDS011;3265;42.694;23.282;2023-03-01T05:07:22;6.23;;;3.90;;
6463;SDS011;3265;42.694;23.282;2023-03-01T05:09:49;7.00;;;3.77;;
6463;SDS011;3265;42.694;23.282;2023-03-01T05:12:16;4.97;;;3.67;;
6463;SDS011;3265;42.694;23.282;2023-03-01T05:14:45;5.10;;;3.63;;
6463;SDS011;3265;42.694;23.282;2023-03-01T05:17:11;6.53;;;3.37;;
6463;SDS011;3265;42.694;23.282;2023-03-01T05:19:38;5.00;;;3.93;;
6463;SDS011;3265;42.694;23.282;2023-03-01T05:22:07;5.43;;;3.97;;
6463;SDS011;3265;42.694;23.282;2023-03-01T05:24:34;6.70;;;4.17;;
6463;SDS011;3265;42.694;23.282;2023-03-01T05:27:04;6.43;;;4.30;;
6463;SDS011;3265;42.694;23.282;2023-03-01T05:29:31;6.60;;;4.80;;
6463;SDS011;3265;42.694;23.282;2023-03-01T05:32:02;5.23;;;4.07;;
6463;SDS011;3265;42.694;23.282;2023-03-01T05:34:30;8.37;;;4.07;;
6463;SDS011;3265;42.694;23.282;2023-03-01T05:36:58;7.00;;;4.20;;
6463;SDS011;3265;42.694;23.282;2023-03-01T05:39:27;14.17;;;4.60;;
6463;SDS011;3265;42.694;23.282;2023-03-01T05:41:55;5.73;;;4.07;;
6463;SDS011;3265;42.694;23.282;2023-03-01T05:44:23;6.97;;;4.67;;
6463;SDS011;3265;42.694;23.282;2023-03-01T05:46:53;9.53;;;4.80;;
6463;SDS011;3265;42.694;23.282;2023-03-01T05:49:21;7.10;;;5.17;;
6463;SDS011;3265;42.694;23.282;2023-03-01T05:51:49;7.50;;;5.07;;
6463;SDS011;3265;42.694;23.282;2023-03-01T05:54:18;10.50;;;5.77;;
6463;SDS011;3265;42.694;23.282;2023-03-01T05:56:46;6.73;;;4.97;;
6463;SDS011;3265;42.694;23.282;2023-03-01T05:59:14;9.87;;;4.97;;
6463;SDS011;3265;42.694;23.282;2023-03-01T06:01:41;7.47;;;5.33;;
6463;SDS011;3265;42.694;23.282;2023-03-01T06:04:09;7.60;;;4.73;;
6463;SDS011;3265;42.694;23.282;2023-03-01T06:06:37;7.50;;;5.13;;
6463;SDS011;3265;42.694;23.282;2023-03-01T06:09:04;8.00;;;4.70;;
6463;SDS011;3265;42.694;23.282;2023-03-01T06:11:34;13.33;;;4.63;;
6463;SDS011;3265;42.694;23.282;2023-03-01T06:14:01;15.87;;;5.33;;
6463;SDS011;3265;42.694;23.282;2023-03-01T06:16:37;9.97;;;4.30;;
6463;SDS011;3265;42.694;23.282;2023-03-01T06:19:04;9.40;;;4.70;;
6463;SDS011;3265;42.694;23.282;2023-03-01T06:21:31;6.27;;;4.17;;
6463;SDS011;3265;42.694;23.282;2023-03-01T06:23:59;6.97;;;4.30;;
6463;SDS011;3265;42.694;23.282;2023-03-01T06:26:26;9.40;;;4.57;;
6463;SDS011;3265;42.694;23.282;2023-03-01T06:28:53;6.70;;;3.80;;
6463;SDS011;3265;42.694;23.282;2023-03-01T06:31:20;7.20;;;4.20;;
6463;SDS011;3265;42.694;23.282;2023-03-01T06:33:47;5.40;;;4.03;;
6463;SDS011;3265;42.694;23.282;2023-03-01T06:36:14;9.27;;;5.10;;
6463;SDS011;3265;42.694;23.282;2023-03-01T06:38:43;7.43;;;5.13;;
6463;SDS011;3265;42.694;23.282;2023-03-01T06:41:12;9.23;;;4.40;;
6463;SDS011;3265;42.694;23.282;2023-03-01T06:43:39;7.00;;;4.40;;
6463;SDS011;3265;42.694;23.282;2023-03-01T06:46:05;4.80;;;3.80;;
6463;SDS011;3265;42.694;23.282;2023-03-01T06:48:33;7.57;;;3.90;;
6463;SDS011;3265;42.694;23.282;2023-03-01T06:51:00;4.73;;;3.70;;
6463;SDS011;3265;42.694;23.282;2023-03-01T06:53:27;6.87;;;4.00;;
6463;SDS011;3265;42.694;23.282;2023-03-01T06:55:54;6.77;;;3.90;;
6463;SDS011;3265;42.694;23.282;2023-03-01T06:58:23;4.10;;;3.47;;
6463;SDS011;3265;42.694;23.282;2023-03-01T07:00:50;6.77;;;3.70;;
6463;SDS011;3265;42.694;23.282;2023-03-01T07:03:18;6.07;;;4.30;;
6463;SDS011;3265;42.694;23.282;2023-03-01T07:05:45;6.10;;;3.67;;
6463;SDS011;3265;42.694;23.282;2023-03-01T07:08:14;7.40;;;3.70;;
6463;SDS011;3265;42.694;23.282;2023-03-01T07:10:41;5.37;;;3.77;;
6463;SDS011;3265;42.694;23.282;2023-03-01T07:13:08;5.60;;;3.57;;
6463;SDS011;3265;42.694;23.282;2023-03-01T07:15:36;5.23;;;3.80;;
6463;SDS011;3265;42.694;23.282;2023-03-01T07:18:03;5.53;;;3.70;;
6463;SDS011;3265;42.694;23.282;2023-03-01T07:20:30;9.13;;;3.87;;
6463;SDS011;3265;42.694;23.282;2023-03-01T07:22:57;5.10;;;3.30;;
6463;SDS011;3265;42.694;23.282;2023-03-01T07:25:24;4.97;;;3.60;;
6463;SDS011;3265;42.694;23.282;2023-03-01T07:27:51;6.57;;;3.87;;
6463;SDS011;3265;42.694;23.282;2023-03-01T07:30:18;4.70;;;3.50;;
6463;SDS011;3265;42.694;23.282;2023-03-01T07:32:47;8.10;;;3.80;;
6463;SDS011;3265;42.694;23.282;2023-03-01T07:35:14;5.37;;;3.70;;
6463;SDS011;3265;42.694;23.282;2023-03-01T07:37:41;7.03;;;3.73;;
6463;SDS011;3265;42.694;23.282;2023-03-01T07:40:08;5.63;;;3.97;;
6463;SDS011;3265;42.694;23.282;2023-03-01T07:42:36;10.60;;;3.90;;
6463;SDS011;3265;42.694;23.282;2023-03-01T07:45:04;5.27;;;3.73;;
6463;SDS011;3265;42.694;23.282;2023-03-01T07:47:32;6.50;;;3.57;;
6463;SDS011;3265;42.694;23.282;2023-03-01T07:50:00;6.33;;;3.50;;
6463;SDS011;3265;42.694;23.282;2023-03-01T07:52:28;7.73;;;4.17;;
6463;SDS011;3265;42.694;23.282;2023-03-01T07:54:55;7.87;;;3.93;;
6463;SDS011;3265;42.694;23.282;2023-03-01T07:57:22;6.47;;;3.53;;
6463;SDS011;3265;42.694;23.282;2023-03-01T07:59:49;6.20;;;3.80;;
6463;SDS011;3265;42.694;23.282;2023-03-01T08:02:16;5.60;;;4.00;;
6463;SDS011;3265;42.694;23.282;2023-03-01T08:04:43;5.57;;;4.10;;
6463;SDS011;3265;42.694;23.282;2023-03-01T08:07:12;5.83;;;3.90;;
6463;SDS011;3265;42.694;23.282;2023-03-01T08:09:39;6.67;;;3.83;;
6463;SDS011;3265;42.694;23.282;2023-03-01T08:12:06;5.37;;;3.37;;
6463;SDS011;3265;42.694;23.282;2023-03-01T08:14:33;6.00;;;3.50;;
6463;SDS011;3265;42.694;23.282;2023-03-01T08:16:59;5.67;;;3.97;;
6463;SDS011;3265;42.694;23.282;2023-03-01T08:19:28;7.47;;;4.10;;
6463;SDS011;3265;42.694;23.282;2023-03-01T08:21:54;9.30;;;3.93;;
6463;SDS011;3265;42.694;23.282;2023-03-01T08:24:24;9.03;;;3.90;;
6463;SDS011;3265;42.694;23.282;2023-03-01T08:26:51;5.40;;;3.40;;
6463;SDS011;3265;42.694;23.282;2023-03-01T08:29:18;6.23;;;3.60;;
6463;SDS011;3265;42.694;23.282;2023-03-01T08:31:45;20.00;;;4.23;;
6463;SDS011;3265;42.694;23.282;2023-03-01T08:34:14;7.33;;;4.43;;
6463;SDS011;3265;42.694;23.282;2023-03-01T08:36:43;4.37;;;3.73;;
6463;SDS011;3265;42.694;23.282;2023-03-01T08:39:12;6.87;;;3.80;;
6463;SDS011;3265;42.694;23.282;2023-03-01T08:41:42;9.17;;;4.83;;
6463;SDS011;3265;42.694;23.282;2023-03-01T08:44:09;5.70;;;3.90;;
6463;SDS011;3265;42.694;23.282;2023-03-01T08:46:39;6.93;;;4.80;;
6463;SDS011;3265;42.694;23.282;2023-03-01T08:49:07;9.17;;;4.70;;
6463;SDS011;3265;42.694;23.282;2023-03-01T08:51:35;7.87;;;5.40;;
6463;SDS011;3265;42.694;23.282;2023-03-01T08:54:02;6.97;;;4.70;;
6463;SDS011;3265;42.694;23.282;2023-03-01T08:56:30;7.97;;;4.67;;
6463;SDS011;3265;42.694;23.282;2023-03-01T08:58:59;6.57;;;5.50;;
6463;SDS011;3265;42.694;23.282;2023-03-01T09:01:26;9.73;;;6.10;;
6463;SDS011;3265;42.694;23.282;2023-03-01T09:03:53;5.63;;;4.90;;
6463;SDS011;3265;42.694;23.282;2023-03-01T09:06:20;5.90;;;4.50;;
6463;SDS011;3265;42.694;23.282;2023-03-01T09:08:47;6.30;;;4.37;;
6463;SDS011;3265;42.694;23.282;2023-03-01T09:11:16;9.23;;;4.33;;
6463;SDS011;3265;42.694;23.282;2023-03-01T09:13:44;4.23;;;3.70;;
6463;SDS011;3265;42.694;23.282;2023-03-01T09:16:14;8.07;;;4.00;;
6463;SDS011;3265;42.694;23.282;2023-03-01T09:18:45;7.17;;;3.97;;
6463;SDS011;3265;42.694;23.282;2023-03-01T09:21:17;4.37;;;3.47;;
6463;SDS011;3265;42.694;23.282;2023-03-01T09:23:46;4.00;;;3.60;;
6463;SDS011;3265;42.694;23.282;2023-03-01T09:26:15;7.13;;;3.90;;
6463;SDS011;3265;42.694;23.282;2023-03-01T09:28:44;5.23;;;3.70;;
6463;SDS011;3265;42.694;23.282;2023-03-01T09:31:13;7.37;;;3.20;;
6463;SDS011;3265;42.694;23.282;2023-03-01T09:33:41;4.33;;;3.70;;
6463;SDS011;3265;42.694;23.282;2023-03-01T09:36:10;4.93;;;3.67;;
6463;SDS011;3265;42.694;23.282;2023-03-01T09:38:38;5.00;;;4.17;;
6463;SDS011;3265;42.694;23.282;2023-03-01T09:41:09;4.90;;;3.23;;
6463;SDS011;3265;42.694;23.282;2023-03-01T09:43:40;3.33;;;3.00;;
6463;SDS011;3265;42.694;23.282;2023-03-01T09:46:14;8.47;;;3.47;;
6463;SDS011;3265;42.694;23.282;2023-03-01T09:48:43;6.90;;;3.30;;
6463;SDS011;3265;42.694;23.282;2023-03-01T09:51:16;4.27;;;3.20;;
6463;SDS011;3265;42.694;23.282;2023-03-01T09:53:45;5.53;;;3.60;;
6463;SDS011;3265;42.694;23.282;2023-03-01T09:56:13;12.47;;;3.60;;
6463;SDS011;3265;42.694;23.282;2023-03-01T09:58:47;5.23;;;3.20;;
6463;SDS011;3265;42.694;23.282;2023-03-01T10:01:26;5.70;;;3.00;;
6463;SDS011;3265;42.694;23.282;2023-03-01T10:04:04;5.27;;;3.40;;
6463;SDS011;3265;42.694;23.282;2023-03-01T10:06:48;4.90;;;3.20;;
6463;SDS011;3265;42.694;23.282;2023-03-01T10:09:24;6.13;;;3.43;;
6463;SDS011;3265;42.694;23.282;2023-03-01T10:11:53;6.37;;;3.10;;
6463;SDS011;3265;42.694;23.282;2023-03-01T10:14:26;3.70;;;2.93;;
6463;SDS011;3265;42.694;23.282;2023-03-01T10:17:01;3.23;;;2.90;;
6463;SDS011;3265;42.694;23.282;2023-03-01T10:19:32;8.30;;;3.07;;
6463;SDS011;3265;42.694;23.282;2023-03-01T10:22:03;9.07;;;3.33;;
6463;SDS011;3265;42.694;23.282;2023-03-01T10:24:37;3.97;;;3.10;;
6463;SDS011;3265;42.694;23.282;2023-03-01T10:27:05;6.10;;;3.20;;
6463;SDS011;3265;42.694;23.282;2023-03-01T10:29:37;5.80;;;3.20;;
6463;SDS011;3265;42.694;23.282;2023-03-01T10:32:11;6.33;;;3.40;;
6463;SDS011;3265;42.694;23.282;2023-03-01T10:34:38;3.83;;;3.00;;
6463;SDS011;3265;42.694;23.282;2023-03-01T10:37:09;5.47;;;3.40;;
6463;SDS011;3265;42.694;23.282;2023-03-01T10:39:53;6.67;;;3.70;;
6463;SDS011;3265;42.694;23.282;2023-03-01T10:42:25;3.80;;;3.10;;
6463;SDS011;3265;42.694;23.282;2023-03-01T10:44:55;4.47;;;3.13;;
6463;SDS011;3265;42.694;23.282;2023-03-01T10:47:24;5.77;;;3.33;;
6463;SDS011;3265;42.694;23.282;2023-03-01T10:49:53;5.20;;;3.30;;
6463;SDS011;3265;42.694;23.282;2023-03-01T10:52:26;5.20;;;2.90;;
6463;SDS011;3265;42.694;23.282;2023-03-01T10:54:56;3.80;;;3.07;;
6463;SDS011;3265;42.694;23.282;2023-03-01T10:57:32;7.47;;;3.10;;
6463;SDS011;3265;42.694;23.282;2023-03-01T11:00:15;4.20;;;3.23;;
6463;SDS011;3265;42.694;23.282;2023-03-01T11:02:49;4.53;;;3.10;;
6463;SDS011;3265;42.694;23.282;2023-03-01T11:05:19;3.87;;;3.20;;
6463;SDS011;3265;42.694;23.282;2023-03-01T11:07:51;3.30;;;2.63;;
6463;SDS011;3265;42.694;23.282;2023-03-01T11:10:21;3.93;;;2.63;;
6463;SDS011;3265;42.694;23.282;2023-03-01T11:12:50;6.33;;;2.67;;
6463;SDS011;3265;42.694;23.282;2023-03-01T11:15:25;3.87;;;2.83;;
6463;SDS011;3265;42.694;23.282;2023-03-01T11:17:54;3.43;;;2.67;;
6463;SDS011;3265;42.694;23.282;2023-03-01T11:20:26;5.83;;;2.70;;
6463;SDS011;3265;42.694;23.282;2023-03-01T11:22:58;5.73;;;3.10;;
6463;SDS011;3265;42.694;23.282;2023-03-01T11:25:30;7.57;;;2.97;;
6463;SDS011;3265;42.694;23.282;2023-03-01T11:28:01;4.80;;;2.83;;
6463;SDS011;3265;42.694;23.282;2023-03-01T11:30:32;3.70;;;2.87;;
6463;SDS011;3265;42.694;23.282;2023-03-01T11:33:08;6.00;;;2.87;;
6463;SDS011;3265;42.694;23.282;2023-03-01T11:35:45;3.47;;;2.77;;
6463;SDS011;3265;42.694;23.282;2023-03-01T11:38:21;4.23;;;2.77;;
6463;SDS011;3265;42.694;23.282;2023-03-01T11:40:52;3.03;;;2.70;;
6463;SDS011;3265;42.694;23.282;2023-03-01T11:43:29;3.97;;;2.77;;
6463;SDS011;3265;42.694;23.282;2023-03-01T11:46:08;3.17;;;2.20;;
6463;SDS011;3265;42.694;23.282;2023-03-01T11:49:02;3.73;;;2.50;;
6463;SDS011;3265;42.694;23.282;2023-03-01T11:51:45;6.43;;;3.00;;
6463;SDS011;3265;42.694;23.282;2023-03-01T11:54:20;4.47;;;2.73;;
6463;SDS011;3265;42.694;23.282;2023-03-01T11:57:01;5.20;;;3.13;;
6463;SDS011;3265;42.694;23.282;2023-03-01T11:59:49;7.00;;;4.10;;
6463;SDS011;3265;42.694;23.282;2023-03-01T12:02:40;2.87;;;2.30;;
6463;SDS011;3265;42.694;23.282;2023-03-01T12:08:42;6.63;;;3.57;;
6463;SDS011;3265;42.694;23.282;2023-03-01T12:11:19;3.97;;;3.13;;
6463;SDS011;3265;42.694;23.282;2023-03-01T12:14:00;5.93;;;3.60;;
6463;SDS011;3265;42.694;23.282;2023-03-01T12:16:49;6.83;;;4.00;;
6463;SDS011;3265;42.694;23.282;2023-03-01T12:19:41;9.03;;;3.90;;
6463;SDS011;3265;42.694;23.282;2023-03-01T12:22:24;4.60;;;3.53;;
6463;SDS011;3265;42.694;23.282;2023-03-01T12:28:02;4.57;;;3.73;;
6463;SDS011;3265;42.694;23.282;2023-03-01T12:30:52;4.70;;;3.60;;
6463;SDS011;3265;42.694;23.282;2023-03-01T12:33:37;5.07;;;3.90;;
6463;SDS011;3265;42.694;23.282;2023-03-01T12:36:31;6.17;;;4.00;;
6463;SDS011;3265;42.694;23.282;2023-03-01T12:39:12;9.23;;;4.33;;
6463;SDS011;3265;42.694;23.282;2023-03-01T12:41:57;4.13;;;3.73;;
6463;SDS011;3265;42.694;23.282;2023-03-01T12:44:36;10.13;;;4.23;;
6463;SDS011;3265;42.694;23.282;2023-03-01T12:47:18;6.57;;;4.17;;
6463;SDS011;3265;42.694;23.282;2023-03-01T12:49:54;5.40;;;3.93;;
6463;SDS011;3265;42.694;23.282;2023-03-01T12:52:26;5.40;;;4.03;;
6463;SDS011;3265;42.694;23.282;2023-03-01T12:55:00;5.00;;;4.07;;
6463;SDS011;3265;42.694;23.282;2023-03-01T12:57:34;5.07;;;3.90;;
6463;SDS011;3265;42.694;23.282;2023-03-01T13:00:10;5.80;;;3.83;;
6463;SDS011;3265;42.694;23.282;2023-03-01T13:02:48;6.17;;;4.57;;
6463;SDS011;3265;42.694;23.282;2023-03-01T13:05:25;7.13;;;4.73;;
6463;SDS011;3265;42.694;23.282;2023-03-01T13:08:01;4.97;;;4.00;;
6463;SDS011;3265;42.694;23.282;2023-03-01T13:10:39;5.80;;;4.47;;
6463;SDS011;3265;42.694;23.282;2023-03-01T13:13:15;6.80;;;3.97;;
6463;SDS011;3265;42.694;23.282;2023-03-01T13:15:46;7.60;;;3.97;;
6463;SDS011;3265;42.694;23.282;2023-03-01T13:18:32;6.43;;;3.90;;
6463;SDS011;3265;42.694;23.282;2023-03-01T13:21:00;6.03;;;3.87;;
6463;SDS011;3265;42.694;23.282;2023-03-01T13:23:30;5.80;;;4.20;;
6463;SDS011;3265;42.694;23.282;2023-03-01T13:26:02;9.07;;;3.80;;
6463;SDS011;3265;42.694;23.282;2023-03-01T13:28:48;8.00;;;4.37;;
6463;SDS011;3265;42.694;23.282;2023-03-01T13:34:42;5.47;;;3.67;;
6463;SDS011;3265;42.694;23.282;2023-03-01T13:37:18;6.97;;;3.90;;
6463;SDS011;3265;42.694;23.282;2023-03-01T13:39:56;5.17;;;3.77;;
6463;SDS011;3265;42.694;23.282;2023-03-01T13:42:33;4.30;;;3.30;;
6463;SDS011;3265;42.694;23.282;2023-03-01T13:45:15;4.60;;;3.70;;
6463;SDS011;3265;42.694;23.282;2023-03-01T13:47:45;5.03;;;3.93;;
6463;SDS011;3265;42.694;23.282;2023-03-01T13:50:19;7.23;;;4.07;;
6463;SDS011;3265;42.694;23.282;2023-03-01T13:52:49;6.77;;;4.03;;
6463;SDS011;3265;42.694;23.282;2023-03-01T13:55:19;7.57;;;4.33;;
6463;SDS011;3265;42.694;23.282;2023-03-01T13:57:51;6.00;;;3.90;;
6463;SDS011;3265;42.694;23.282;2023-03-01T14:00:31;6.33;;;3.90;;
6463;SDS011;3265;42.694;23.282;2023-03-01T14:03:01;7.30;;;3.70;;
6463;SDS011;3265;42.694;23.282;2023-03-01T14:05:30;6.20;;;3.50;;
6463;SDS011;3265;42.694;23.282;2023-03-01T14:07:57;5.93;;;3.80;;
6463;SDS011;3265;42.694;23.282;2023-03-01T14:10:25;5.87;;;3.90;;
6463;SDS011;3265;42.694;23.282;2023-03-01T14:13:02;7.93;;;4.37;;
6463;SDS011;3265;42.694;23.282;2023-03-01T14:15:45;10.60;;;4.50;;
6463;SDS011;3265;42.694;23.282;2023-03-01T14:18:23;7.77;;;4.10;;
6463;SDS011;3265;42.694;23.282;2023-03-01T14:20:56;6.50;;;4.13;;
6463;SDS011;3265;42.694;23.282;2023-03-01T14:23:24;10.77;;;4.67;;
6463;SDS011;3265;42.694;23.282;2023-03-01T14:25:52;6.63;;;4.97;;
6463;SDS011;3265;42.694;23.282;2023-03-01T14:28:21;7.40;;;4.30;;
6463;SDS011;3265;42.694;23.282;2023-03-01T14:30:54;4.53;;;3.80;;
6463;SDS011;3265;42.694;23.282;2023-03-01T14:33:23;9.53;;;4.20;;
6463;SDS011;3265;42.694;23.282;2023-03-01T14:35:52;7.93;;;3.97;;
6463;SDS011;3265;42.694;23.282;2023-03-01T14:38:27;10.13;;;4.47;;
6463;SDS011;3265;42.694;23.282;2023-03-01T14:40:57;10.93;;;4.37;;
6463;SDS011;3265;42.694;23.282;2023-03-01T14:43:27;6.57;;;4.13;;
6463;SDS011;3265;42.694;23.282;2023-03-01T14:45:57;5.77;;;3.93;;
6463;SDS011;3265;42.694;23.282;2023-03-01T14:48:24;5.90;;;4.07;;
6463;SDS011;3265;42.694;23.282;2023-03-01T14:50:53;8.40;;;4.33;;
6463;SDS011;3265;42.694;23.282;2023-03-01T14:53:21;9.77;;;4.00;;
6463;SDS011;3265;42.694;23.282;2023-03-01T14:55:51;5.90;;;4.00;;
6463;SDS011;3265;42.694;23.282;2023-03-01T14:58:21;7.20;;;4.00;;
6463;SDS011;3265;42.694;23.282;2023-03-01T15:00:50;6.77;;;3.87;;
6463;SDS011;3265;42.694;23.282;2023-03-01T15:03:23;7.63;;;3.50;;
6463;SDS011;3265;42.694;23.282;2023-03-01T15:05:53;9.97;;;4.00;;
6463;SDS011;3265;42.694;23.282;2023-03-01T15:08:22;8.90;;;3.50;;
6463;SDS011;3265;42.694;23.282;2023-03-01T15:10:58;7.97;;;3.83;;
6463;SDS011;3265;42.694;23.282;2023-03-01T15:13:29;6.73;;;4.13;;
6463;SDS011;3265;42.694;23.282;2023-03-01T15:16:02;5.73;;;3.53;;
6463;SDS011;3265;42.694;23.282;2023-03-01T15:18:33;6.73;;;4.40;;
6463;SDS011;3265;42.694;23.282;2023-03-01T15:21:08;7.80;;;4.33;;
6463;SDS011;3265;42.694;23.282;2023-03-01T15:23:37;8.27;;;4.00;;
6463;SDS011;3265;42.694;23.282;2023-03-01T15:26:16;6.00;;;3.67;;
6463;SDS011;3265;42.694;23.282;2023-03-01T15:28:49;4.87;;;3.93;;
6463;SDS011;3265;42.694;23.282;2023-03-01T15:31:19;6.77;;;3.87;;
6463;SDS011;3265;42.694;23.282;2023-03-01T15:33:50;6.50;;;3.80;;